Time;durP1;ratioP1;P1;durP2;ratioP2;P2;SDS_P1;SDS_P2;PMS_P1;PMS_P2;Temp;Humidity;BMP_temperature;BMP_pressure;BME280_temperature;BME280_humidity;BME280_pressure;Samples;Min_cycle;Max_cycle;Signal;HPM_P1;HPM_P2
2022/08/11 00:01:48;;;;;;;1.35;1.23;;;;;;;;;;5040243;28;20238;-69
2022/08/11 00:04:16;;;;;;;1.40;1.30;;;;;;;;;;5040460;28;20202;-70
2022/08/11 00:06:43;;;;;;;1.75;1.30;;;;;;;;;;5039821;28;20213;-70
2022/08/11 00:09:10;;;;;;;2.13;1.50;;;;;;;;;;5040138;28;20198;-70
2022/08/11 00:11:40;;;;;;;1.70;1.60;;;;;;;;;;5040216;28;20243;-69
2022/08/11 00:14:13;;;;;;;2.80;1.42;;;;;;;;;;5039172;28;20545;-69
2022/08/11 00:16:40;;;;;;;2.58;1.50;;;;;;;;;;5039973;28;20205;-69
2022/08/11 00:19:07;;;;;;;1.63;1.52;;;;;;;;;;5040400;28;20229;-69
2022/08/11 00:21:40;;;;;;;2.13;1.40;;;;;;;;;;5039918;28;20198;-69
2022/08/11 00:24:07;;;;;;;2.28;1.38;;;;;;;;;;5040070;28;20194;-69
2022/08/11 00:26:35;;;;;;;1.20;1.20;;;;;;;;;;5039626;28;20198;-69
2022/08/11 00:29:09;;;;;;;3.35;1.35;;;;;;;;;;5039764;28;20565;-69
2022/08/11 00:31:35;;;;;;;2.85;1.65;;;;;;;;;;5039961;28;20225;-69
2022/08/11 00:34:02;;;;;;;1.45;1.35;;;;;;;;;;5039674;28;20253;-69
2022/08/11 00:36:37;;;;;;;2.17;1.50;;;;;;;;;;5039387;28;20202;-69
2022/08/11 00:39:05;;;;;;;1.52;1.50;;;;;;;;;;5039681;28;20197;-69
2022/08/11 00:41:34;;;;;;;1.77;1.75;;;;;;;;;;5039727;28;20484;-69
2022/08/11 00:44:09;;;;;;;2.30;1.60;;;;;;;;;;5039802;28;20240;-69
2022/08/11 00:46:40;;;;;;;2.33;1.48;;;;;;;;;;5039452;28;20205;-69
2022/08/11 00:49:11;;;;;;;1.52;1.42;;;;;;;;;;5039426;28;20198;-69
2022/08/11 00:51:47;;;;;;;1.85;1.75;;;;;;;;;;5039521;28;20233;-69
2022/08/11 00:54:25;;;;;;;2.45;1.75;;;;;;;;;;5039319;28;20225;-69
2022/08/11 00:57:15;;;;;;;1.52;1.52;;;;;;;;;;5039486;28;20197;-69
2022/08/11 00:59:52;;;;;;;3.65;1.52;;;;;;;;;;5039583;28;20235;-69
2022/08/11 01:02:25;;;;;;;5.18;1.67;;;;;;;;;;5039444;28;20202;-69
2022/08/11 01:05:10;;;;;;;1.67;1.58;;;;;;;;;;5039528;28;20440;-69
2022/08/11 01:07:59;;;;;;;1.92;1.85;;;;;;;;;;5039164;28;20266;-69
2022/08/11 01:10:39;;;;;;;1.88;1.80;;;;;;;;;;5039391;28;20452;-69
2022/08/11 01:13:12;;;;;;;1.33;1.30;;;;;;;;;;5039353;28;20225;-69
2022/08/11 01:15:55;;;;;;;1.60;1.50;;;;;;;;;;5039612;28;20251;-69
2022/08/11 01:18:49;;;;;;;2.58;1.83;;;;;;;;;;5039472;28;20413;-69
2022/08/11 01:21:26;;;;;;;1.80;1.70;;;;;;;;;;5039286;28;20453;-69
2022/08/11 01:24:15;;;;;;;1.77;1.67;;;;;;;;;;5039269;28;20194;-69
2022/08/11 01:27:02;;;;;;;1.35;1.27;;;;;;;;;;5042039;28;20198;-69
2022/08/11 01:29:50;;;;;;;1.77;1.75;;;;;;;;;;5042489;28;20201;-69
2022/08/11 01:32:37;;;;;;;1.75;1.67;;;;;;;;;;5042737;28;20502;-69
2022/08/11 01:35:22;;;;;;;2.40;1.52;;;;;;;;;;5042456;28;20198;-69
2022/08/11 01:38:10;;;;;;;1.92;1.83;;;;;;;;;;5041997;28;20374;-69
2022/08/11 01:40:50;;;;;;;3.08;1.60;;;;;;;;;;5042633;28;20198;-69
2022/08/11 01:46:27;;;;;;;3.80;1.95;;;;;;;;;;5042035;28;20422;-69
2022/08/11 01:49:02;;;;;;;1.80;1.70;;;;;;;;;;5042340;28;20437;-69
2022/08/11 01:51:34;;;;;;;1.88;1.67;;;;;;;;;;5042202;28;20202;-69
2022/08/11 01:54:03;;;;;;;2.13;1.63;;;;;;;;;;5041404;28;20392;-69
2022/08/11 01:56:35;;;;;;;1.88;1.75;;;;;;;;;;5041864;28;20243;-69
2022/08/11 01:59:08;;;;;;;1.90;1.80;;;;;;;;;;5042284;28;20198;-69
2022/08/11 02:01:41;;;;;;;1.88;1.63;;;;;;;;;;5042662;28;20512;-69
2022/08/11 02:04:12;;;;;;;1.80;1.80;;;;;;;;;;5041948;28;20264;-69
2022/08/11 02:06:57;;;;;;;1.80;1.80;;;;;;;;;;5041811;28;20648;-69
2022/08/11 02:09:40;;;;;;;1.77;1.67;;;;;;;;;;5042066;28;20527;-69
2022/08/11 02:12:12;;;;;;;1.33;1.30;;;;;;;;;;5042006;28;20236;-69
2022/08/11 02:14:43;;;;;;;2.42;1.98;;;;;;;;;;5042130;28;20582;-69
2022/08/11 02:17:13;;;;;;;2.40;1.85;;;;;;;;;;5041890;28;20407;-69
2022/08/11 02:25:21;;;;;;;2.03;1.80;;;;;;;;;;5041803;28;20243;-70
2022/08/11 02:27:49;;;;;;;3.22;1.63;;;;;;;;;;5041561;28;20206;-68
2022/08/11 02:30:17;;;;;;;2.00;1.85;;;;;;;;;;5041736;28;20201;-68
2022/08/11 02:35:44;;;;;;;2.10;2.00;;;;;;;;;;5041614;28;20197;-69
2022/08/11 02:38:16;;;;;;;2.15;1.80;;;;;;;;;;5040836;28;20230;-69
2022/08/11 02:40:48;;;;;;;1.67;1.55;;;;;;;;;;5041559;28;20385;-69
2022/08/11 02:43:19;;;;;;;2.58;2.13;;;;;;;;;;5041383;28;20201;-69
2022/08/11 02:45:55;;;;;;;2.60;2.40;;;;;;;;;;5041555;28;20182;-69
2022/08/11 02:51:17;;;;;;;2.78;2.10;;;;;;;;;;5041224;28;20208;-69
2022/08/11 02:53:46;;;;;;;2.38;2.17;;;;;;;;;;5041295;28;20540;-69
2022/08/11 02:56:21;;;;;;;2.00;1.90;;;;;;;;;;5041187;28;20205;-69
2022/08/11 03:01:38;;;;;;;3.80;2.40;;;;;;;;;;5040835;28;20224;-69
2022/08/11 03:04:08;;;;;;;2.08;1.92;;;;;;;;;;5041196;28;20501;-69
2022/08/11 03:06:36;;;;;;;2.28;2.17;;;;;;;;;;5040702;28;20218;-69
2022/08/11 03:09:04;;;;;;;3.00;2.00;;;;;;;;;;5041228;28;20206;-69
2022/08/11 03:17:28;;;;;;;2.15;1.92;;;;;;;;;;5040896;28;20252;-69
2022/08/11 03:20:01;;;;;;;2.00;1.90;;;;;;;;;;5040964;28;20274;-69
2022/08/11 03:22:32;;;;;;;9.10;2.70;;;;;;;;;;5041015;28;20213;-69
2022/08/11 03:25:02;;;;;;;2.25;1.95;;;;;;;;;;5040868;28;20428;-69
2022/08/11 03:27:35;;;;;;;2.40;2.30;;;;;;;;;;5040570;28;20202;-69
2022/08/11 03:30:05;;;;;;;2.38;2.20;;;;;;;;;;5040961;28;20505;-69
2022/08/11 03:32:34;;;;;;;2.85;2.30;;;;;;;;;;5040872;28;20235;-69
2022/08/11 03:35:00;;;;;;;1.90;1.90;;;;;;;;;;5040610;28;20225;-69
2022/08/11 03:37:49;;;;;;;2.30;2.20;;;;;;;;;;5040395;28;20454;-69
2022/08/11 03:43:17;;;;;;;2.60;2.50;;;;;;;;;;5040209;28;20231;-69
2022/08/11 03:45:49;;;;;;;2.63;2.50;;;;;;;;;;5041089;28;20204;-69
2022/08/11 03:48:19;;;;;;;2.60;2.50;;;;;;;;;;5039540;28;20206;-69
2022/08/11 03:51:06;;;;;;;2.70;2.50;;;;;;;;;;5040238;28;20206;-69
2022/08/11 03:53:39;;;;;;;2.45;2.30;;;;;;;;;;5040208;28;20222;-69
2022/08/11 03:56:26;;;;;;;2.30;2.20;;;;;;;;;;5040113;28;20208;-69
2022/08/11 03:59:08;;;;;;;4.00;2.67;;;;;;;;;;5041762;28;20502;-69
2022/08/11 04:01:55;;;;;;;2.63;2.40;;;;;;;;;;5040204;28;20198;-69
2022/08/11 04:04:31;;;;;;;2.67;2.45;;;;;;;;;;5048402;28;20389;-69
2022/08/11 04:07:14;;;;;;;3.42;2.50;;;;;;;;;;5039962;28;20422;-69
2022/08/11 04:09:58;;;;;;;2.53;2.28;;;;;;;;;;5040288;28;20251;-69
2022/08/11 04:12:34;;;;;;;2.45;2.35;;;;;;;;;;5040270;28;20205;-69
2022/08/11 04:18:06;;;;;;;2.63;2.53;;;;;;;;;;5039915;28;20516;-69
2022/08/11 04:20:51;;;;;;;2.60;2.50;;;;;;;;;;5040014;28;20197;-69
2022/08/11 04:23:45;;;;;;;2.65;2.42;;;;;;;;;;5039692;28;20212;-70
2022/08/11 04:26:32;;;;;;;2.83;2.20;;;;;;;;;;5039860;28;20242;-69
2022/08/11 04:29:10;;;;;;;2.60;2.50;;;;;;;;;;5039895;28;20248;-69
2022/08/11 04:31:37;;;;;;;4.97;2.60;;;;;;;;;;5039899;28;20230;-69
2022/08/11 04:34:08;;;;;;;4.22;2.70;;;;;;;;;;5039548;28;20230;-69
2022/08/11 04:39:33;;;;;;;4.65;2.58;;;;;;;;;;5018713;28;20213;-69
2022/08/11 04:45:12;;;;;;;3.20;2.80;;;;;;;;;;5039761;28;20234;-69
2022/08/11 05:02:13;;;;;;;4.50;2.60;;;;;;;;;;5001398;28;20190;-69
2022/08/11 05:08:00;;;;;;;2.92;2.83;;;;;;;;;;5039272;28;20226;-69
2022/08/11 05:10:35;;;;;;;3.15;2.95;;;;;;;;;;5039612;28;20225;-69
2022/08/11 05:35:12;;;;;;;5.13;2.80;;;;;;;;;;5038407;28;20311;-69
2022/08/11 05:37:41;;;;;;;4.97;2.80;;;;;;;;;;5038376;28;20198;-69
2022/08/11 05:56:43;;;;;;;6.53;3.33;;;;;;;;;;5038105;28;20223;-69
2022/08/11 05:59:13;;;;;;;7.22;2.85;;;;;;;;;;5038784;28;20206;-69
2022/08/11 06:01:41;;;;;;;3.20;2.90;;;;;;;;;;5038616;28;20235;-69
2022/08/11 06:04:15;;;;;;;4.05;3.58;;;;;;;;;;5038480;28;20251;-69
2022/08/11 06:06:49;;;;;;;4.88;3.42;;;;;;;;;;5038127;28;20263;-70
2022/08/11 06:09:20;;;;;;;4.10;3.80;;;;;;;;;;5038213;28;20524;-70
2022/08/11 06:11:46;;;;;;;4.20;3.78;;;;;;;;;;5038159;28;20202;-69
2022/08/11 06:14:14;;;;;;;4.07;3.70;;;;;;;;;;5041372;28;20217;-70
2022/08/11 06:16:42;;;;;;;3.83;3.53;;;;;;;;;;5041217;28;20205;-70
2022/08/11 06:19:09;;;;;;;4.82;3.63;;;;;;;;;;5041595;28;20202;-70
2022/08/11 06:21:35;;;;;;;4.30;3.90;;;;;;;;;;5041397;28;20202;-70
2022/08/11 06:24:03;;;;;;;4.18;3.88;;;;;;;;;;5041274;28;20209;-70
2022/08/11 06:26:29;;;;;;;4.47;2.95;;;;;;;;;;5040973;28;20314;-70
2022/08/11 06:28:57;;;;;;;4.32;3.63;;;;;;;;;;5041265;28;20250;-70
2022/08/11 06:31:24;;;;;;;6.22;3.35;;;;;;;;;;5041462;28;20202;-70
2022/08/11 06:33:58;;;;;;;9.65;3.40;;;;;;;;;;5041174;28;20345;-70
2022/08/11 06:36:28;;;;;;;10.27;5.30;;;;;;;;;;5040869;28;20513;-70
2022/08/11 06:39:02;;;;;;;12.40;5.63;;;;;;;;;;5041125;28;20198;-70
2022/08/11 06:41:33;;;;;;;14.63;7.32;;;;;;;;;;5041036;28;20194;-69
2022/08/11 06:44:06;;;;;;;11.45;6.72;;;;;;;;;;5041215;28;20205;-70
2022/08/11 06:46:37;;;;;;;9.88;5.97;;;;;;;;;;5040813;28;20205;-70
2022/08/11 06:51:10;;;;;;;8.48;5.53;;;;;;;;;;5042734;28;20417;-70
2022/08/11 06:51:51;;;;;;;11.80;4.80;;;;;;;;;;5041774;28;20562;-70
2022/08/11 06:54:17;;;;;;;4.78;3.75;;;;;;;;;;5040611;28;20213;-68
2022/08/11 07:02:32;;;;;;;2.78;2.58;;;;;;;;;;4999413;28;20241;-68
2022/08/11 07:05:01;;;;;;;4.03;3.25;;;;;;;;;;5022925;28;20614;-68
2022/08/11 07:16:03;;;;;;;2.72;2.53;;;;;;;;;;5040104;28;20231;-68
2022/08/11 07:29:38;;;;;;;4.85;2.83;;;;;;;;;;5040214;28;20196;-68
2022/08/11 07:32:16;;;;;;;3.40;2.42;;;;;;;;;;5040306;28;20247;-68
2022/08/11 07:34:46;;;;;;;4.00;2.80;;;;;;;;;;5040022;28;20221;-68
2022/08/11 07:37:18;;;;;;;2.33;2.22;;;;;;;;;;5039878;28;20516;-68
2022/08/11 07:39:45;;;;;;;7.70;2.55;;;;;;;;;;5040209;28;20277;-68
2022/08/11 07:42:14;;;;;;;8.07;5.45;;;;;;;;;;5040048;28;20204;-68
2022/08/11 07:52:54;;;;;;;3.15;2.40;;;;;;;;;;5039732;28;20208;-68
2022/08/11 07:55:24;;;;;;;3.33;3.10;;;;;;;;;;5039973;28;20316;-68
2022/08/11 08:19:47;;;;;;;6.88;3.97;;;;;;;;;;5019634;28;20344;-68
2022/08/11 08:22:15;;;;;;;2.50;2.28;;;;;;;;;;5019703;28;20328;-68
2022/08/11 08:24:43;;;;;;;2.20;2.00;;;;;;;;;;5019614;28;20194;-69
2022/08/11 08:27:12;;;;;;;5.18;1.85;;;;;;;;;;5019382;28;20562;-69
2022/08/11 08:32:23;;;;;;;7.80;2.50;;;;;;;;;;5019540;28;20307;-69
2022/08/11 08:34:50;;;;;;;2.17;2.08;;;;;;;;;;5018782;28;20453;-69
2022/08/11 08:37:18;;;;;;;2.50;2.40;;;;;;;;;;5019127;28;20217;-69
2022/08/11 08:39:46;;;;;;;2.05;1.95;;;;;;;;;;5019366;28;20205;-69
2022/08/11 08:42:13;;;;;;;2.80;1.88;;;;;;;;;;5019640;28;20694;-69
2022/08/11 08:44:41;;;;;;;5.57;1.92;;;;;;;;;;5019497;28;20201;-69
2022/08/11 08:47:10;;;;;;;3.08;1.85;;;;;;;;;;5019338;28;20396;-69
2022/08/11 08:49:40;;;;;;;2.13;1.98;;;;;;;;;;5019322;28;20202;-69
2022/08/11 08:52:09;;;;;;;2.53;2.42;;;;;;;;;;5019213;28;20199;-69
2022/08/11 08:54:36;;;;;;;3.38;1.90;;;;;;;;;;5019168;28;20229;-69
2022/08/11 08:57:04;;;;;;;1.98;1.88;;;;;;;;;;5019115;28;20205;-69
2022/08/11 08:59:32;;;;;;;4.43;1.90;;;;;;;;;;5019275;28;20198;-69
2022/08/11 09:02:00;;;;;;;1.90;1.80;;;;;;;;;;5018990;28;20198;-69
2022/08/11 09:04:27;;;;;;;1.90;1.80;;;;;;;;;;5019058;28;20194;-69
2022/08/11 09:06:53;;;;;;;5.18;2.40;;;;;;;;;;5018669;28;20198;-69
2022/08/11 09:09:20;;;;;;;2.35;1.92;;;;;;;;;;5019210;28;20205;-69
2022/08/11 09:11:50;;;;;;;2.95;1.92;;;;;;;;;;5019251;28;20227;-69
2022/08/11 09:14:18;;;;;;;2.40;2.20;;;;;;;;;;5019084;28;20207;-69
2022/08/11 09:16:45;;;;;;;2.00;2.00;;;;;;;;;;5018778;28;20273;-69
2022/08/11 09:19:15;;;;;;;3.00;2.67;;;;;;;;;;5018836;28;20235;-70
2022/08/11 09:21:41;;;;;;;4.65;2.03;;;;;;;;;;5018939;28;20198;-69
2022/08/11 09:27:01;;;;;;;4.13;1.75;;;;;;;;;;5019216;28;20228;-69
2022/08/11 09:29:30;;;;;;;3.13;2.22;;;;;;;;;;5019489;28;20201;-69
2022/08/11 09:31:57;;;;;;;1.85;1.75;;;;;;;;;;5019270;28;20575;-69
2022/08/11 09:34:25;;;;;;;2.00;1.90;;;;;;;;;;5019368;28;20221;-69
2022/08/11 09:42:22;;;;;;;9.00;2.10;;;;;;;;;;5019172;28;20239;-69
2022/08/11 09:44:49;;;;;;;4.50;1.90;;;;;;;;;;5019201;28;20379;-69
2022/08/11 09:47:21;;;;;;;4.65;2.63;;;;;;;;;;5021046;28;20198;-69
2022/08/11 09:49:50;;;;;;;2.00;1.90;;;;;;;;;;5022036;28;20220;-69
2022/08/11 09:52:17;;;;;;;2.35;1.92;;;;;;;;;;5022398;28;20204;-69
2022/08/11 09:54:44;;;;;;;4.22;1.77;;;;;;;;;;5022071;28;20217;-69
2022/08/11 09:59:55;;;;;;;4.32;2.20;;;;;;;;;;5022267;28;20233;-69
2022/08/11 10:02:25;;;;;;;2.75;2.50;;;;;;;;;;5022298;28;20198;-69
2022/08/11 10:04:53;;;;;;;2.40;1.73;;;;;;;;;;5022234;28;20214;-69
2022/08/11 10:07:19;;;;;;;5.28;1.83;;;;;;;;;;5021856;28;20198;-70
2022/08/11 10:09:48;;;;;;;1.85;1.75;;;;;;;;;;5022262;28;20233;-69
2022/08/11 10:12:19;;;;;;;2.90;1.83;;;;;;;;;;5022030;28;20198;-69
2022/08/11 10:17:35;;;;;;;1.48;1.40;;;;;;;;;;5021630;28;20193;-69
2022/08/11 10:20:03;;;;;;;2.30;1.80;;;;;;;;;;5022216;28;20202;-69
2022/08/11 10:27:59;;;;;;;2.80;1.50;;;;;;;;;;5021701;28;20275;-69
2022/08/11 10:35:56;;;;;;;2.75;1.75;;;;;;;;;;5021677;28;20220;-69
2022/08/11 10:38:22;;;;;;;1.40;1.40;;;;;;;;;;5021702;28;20204;-69
2022/08/11 10:43:01;;;;;;;1.90;1.80;;;;;;;;;;5021783;28;20206;-71
2022/08/11 10:43:37;;;;;;;4.85;1.20;;;;;;;;;;5021581;28;20212;-70
2022/08/11 10:48:48;;;;;;;2.38;1.38;;;;;;;;;;5021661;28;20226;-71
2022/08/11 10:51:16;;;;;;;4.38;1.48;;;;;;;;;;5021559;28;20225;-68
2022/08/11 10:59:12;;;;;;;2.58;1.48;;;;;;;;;;5020843;28;20196;-71
2022/08/11 11:01:42;;;;;;;1.17;1.17;;;;;;;;;;5021680;28;20214;-71
2022/08/11 11:04:13;;;;;;;2.45;1.25;;;;;;;;;;5021411;28;20206;-70
2022/08/11 11:06:46;;;;;;;2.30;1.50;;;;;;;;;;5021089;28;20302;-70
2022/08/11 11:09:14;;;;;;;1.20;1.20;;;;;;;;;;5021369;28;20198;-68
2022/08/11 11:20:17;;;;;;;2.70;1.30;;;;;;;;;;5027635;28;20485;-68
2022/08/11 11:22:47;;;;;;;1.60;1.20;;;;;;;;;;5021223;28;20205;-69
2022/08/11 11:25:30;;;;;;;3.63;1.08;;;;;;;;;;5021129;28;20388;-69
2022/08/11 11:28:01;;;;;;;1.40;1.30;;;;;;;;;;5022642;28;20201;-69
2022/08/11 11:30:32;;;;;;;1.75;1.35;;;;;;;;;;5028593;28;20198;-69
2022/08/11 11:33:03;;;;;;;1.52;1.23;;;;;;;;;;5032203;28;20205;-69
2022/08/11 11:35:36;;;;;;;2.58;1.30;;;;;;;;;;5040722;28;20430;-68
2022/08/11 11:38:02;;;;;;;1.20;1.15;;;;;;;;;;5040431;28;20197;-69
2022/08/11 11:40:29;;;;;;;1.00;1.00;;;;;;;;;;5031946;27;20224;-68
2022/08/11 11:42:56;;;;;;;1.13;1.10;;;;;;;;;;5034042;28;20213;-68
2022/08/11 11:45:24;;;;;;;4.53;1.30;;;;;;;;;;5026370;28;20209;-69
2022/08/11 11:47:51;;;;;;;1.10;1.10;;;;;;;;;;5038262;27;20334;-68
2022/08/11 11:50:22;;;;;;;1.75;1.20;;;;;;;;;;5039946;27;20505;-68
2022/08/11 11:52:51;;;;;;;0.95;0.95;;;;;;;;;;5037496;28;20310;-68
2022/08/11 11:55:18;;;;;;;4.68;1.30;;;;;;;;;;5037439;28;20236;-68
2022/08/11 12:03:13;;;;;;;1.48;1.10;;;;;;;;;;5094525;27;20201;-69
2022/08/11 12:05:41;;;;;;;1.58;1.45;;;;;;;;;;5141299;27;20418;-69
2022/08/11 12:08:15;;;;;;;2.13;1.30;;;;;;;;;;5141085;27;20201;-69
2022/08/11 12:10:43;;;;;;;2.50;1.15;;;;;;;;;;5140482;27;20202;-69
2022/08/11 12:15:54;;;;;;;2.75;1.33;;;;;;;;;;5141046;27;20271;-69
2022/08/11 12:18:21;;;;;;;2.85;1.60;;;;;;;;;;5140844;27;20537;-68
2022/08/11 12:20:48;;;;;;;1.80;1.10;;;;;;;;;;5141468;27;20202;-68
2022/08/11 12:28:52;;;;;;;1.40;1.20;;;;;;;;;;5015722;28;20265;-68
2022/08/11 12:31:24;;;;;;;3.05;1.30;;;;;;;;;;5017150;28;20201;-68
2022/08/11 12:33:52;;;;;;;0.85;0.80;;;;;;;;;;5031936;27;20540;-68
2022/08/11 12:36:19;;;;;;;4.20;1.20;;;;;;;;;;5036710;28;20230;-68
2022/08/11 12:38:47;;;;;;;1.52;1.45;;;;;;;;;;5036916;28;20311;-69
2022/08/11 12:46:44;;;;;;;2.42;1.30;;;;;;;;;;5140466;27;20232;-68
2022/08/11 12:52:01;;;;;;;2.60;1.27;;;;;;;;;;5087792;27;20250;-68
2022/08/11 12:54:31;;;;;;;4.05;1.40;;;;;;;;;;5036634;28;20217;-68
2022/08/11 13:05:13;;;;;;;6.97;1.48;;;;;;;;;;5037093;28;20277;-71
2022/08/11 13:07:41;;;;;;;4.40;1.17;;;;;;;;;;5038088;28;20215;-69
2022/08/11 13:10:11;;;;;;;3.50;1.02;;;;;;;;;;5036903;28;20209;-69
2022/08/11 13:12:49;;;;;;;1.13;1.13;;;;;;;;;;5036242;28;20212;-69
2022/08/11 13:15:16;;;;;;;3.53;1.23;;;;;;;;;;5037053;28;20237;-68
2022/08/11 13:17:43;;;;;;;1.67;1.25;;;;;;;;;;5028481;28;20209;-68
2022/08/11 13:20:11;;;;;;;1.33;1.17;;;;;;;;;;5016508;28;20517;-68
2022/08/11 13:22:37;;;;;;;1.83;1.00;;;;;;;;;;5027994;28;20239;-69
2022/08/11 13:25:04;;;;;;;1.05;1.02;;;;;;;;;;5039570;28;20539;-68
2022/08/11 13:27:32;;;;;;;1.95;1.17;;;;;;;;;;5122477;27;20251;-68
2022/08/11 13:32:39;;;;;;;3.47;1.48;;;;;;;;;;5045391;27;20387;-68
2022/08/11 13:35:06;;;;;;;3.03;1.23;;;;;;;;;;5039365;28;20531;-68
2022/08/11 13:37:34;;;;;;;1.67;1.02;;;;;;;;;;5039255;28;20205;-68
2022/08/11 13:40:01;;;;;;;5.07;1.13;;;;;;;;;;5039183;28;20508;-68
2022/08/11 13:42:27;;;;;;;2.17;0.98;;;;;;;;;;5039051;28;20201;-69
2022/08/11 13:44:56;;;;;;;1.10;1.10;;;;;;;;;;5039237;28;20455;-69
2022/08/11 13:47:23;;;;;;;11.73;1.52;;;;;;;;;;5038440;28;20197;-69
2022/08/11 13:49:50;;;;;;;4.43;1.42;;;;;;;;;;5038722;28;20205;-69
2022/08/11 13:52:18;;;;;;;4.53;1.20;;;;;;;;;;5038503;28;20209;-68
2022/08/11 13:54:46;;;;;;;0.90;0.90;;;;;;;;;;5038965;28;20220;-68
2022/08/11 13:57:14;;;;;;;3.03;1.33;;;;;;;;;;5038695;28;20259;-68
2022/08/11 13:59:41;;;;;;;3.60;3.35;;;;;;;;;;5039202;28;20205;-68
2022/08/11 14:02:14;;;;;;;7.82;3.40;;;;;;;;;;5038597;28;20209;-68
2022/08/11 14:04:42;;;;;;;2.47;1.10;;;;;;;;;;5038549;28;20205;-69
2022/08/11 14:07:09;;;;;;;1.92;1.00;;;;;;;;;;5038275;28;20269;-68
2022/08/11 14:09:37;;;;;;;4.10;1.20;;;;;;;;;;5038614;28;20205;-68
2022/08/11 14:14:53;;;;;;;1.85;1.10;;;;;;;;;;5039089;28;20384;-69
2022/08/11 14:17:21;;;;;;;1.55;1.20;;;;;;;;;;5039532;27;20221;-69
2022/08/11 14:19:50;;;;;;;1.15;1.02;;;;;;;;;;5038799;28;20205;-69
2022/08/11 14:22:16;;;;;;;3.13;1.00;;;;;;;;;;5038359;28;20206;-69
2022/08/11 14:24:48;;;;;;;2.72;1.08;;;;;;;;;;5037599;28;20201;-68
2022/08/11 14:27:15;;;;;;;1.40;1.17;;;;;;;;;;5037796;28;20202;-68
2022/08/11 14:29:42;;;;;;;1.20;1.13;;;;;;;;;;5038253;28;20209;-68
2022/08/11 14:32:10;;;;;;;2.35;1.08;;;;;;;;;;5038090;28;20227;-68
2022/08/11 14:34:40;;;;;;;1.88;1.05;;;;;;;;;;5081278;27;20259;-69
2022/08/11 14:37:09;;;;;;;1.48;1.20;;;;;;;;;;5117864;27;20230;-69
2022/08/11 14:39:40;;;;;;;1.42;1.15;;;;;;;;;;5038272;28;20280;-69
2022/08/11 14:47:36;;;;;;;1.30;1.00;;;;;;;;;;5059983;27;20379;-69
2022/08/11 14:50:04;;;;;;;1.20;1.10;;;;;;;;;;5142803;27;20689;-69
2022/08/11 14:52:33;;;;;;;1.27;1.17;;;;;;;;;;5142207;27;20210;-70
2022/08/11 14:57:44;;;;;;;3.05;0.90;;;;;;;;;;5141578;27;20301;-70
2022/08/11 15:00:14;;;;;;;1.00;1.00;;;;;;;;;;5107443;27;20214;-69
2022/08/11 15:05:27;;;;;;;3.60;1.20;;;;;;;;;;5034763;28;20255;-70
2022/08/11 15:07:54;;;;;;;1.95;1.17;;;;;;;;;;5034368;28;20213;-70
2022/08/11 15:10:20;;;;;;;3.15;0.90;;;;;;;;;;5034482;28;20209;-70
2022/08/11 15:12:47;;;;;;;0.95;0.95;;;;;;;;;;5062014;27;20545;-69
2022/08/11 15:18:00;;;;;;;1.27;1.00;;;;;;;;;;5138860;27;20247;-70
2022/08/11 15:25:58;;;;;;;2.60;1.20;;;;;;;;;;5023023;28;20532;-70
2022/08/11 15:45:46;;;;;;;2.13;1.20;;;;;;;;;;4992406;28;20281;-70
2022/08/11 15:48:07;;;;;;;3.50;1.30;;;;;;;;;;5102778;27;20260;-68
2022/08/11 15:50:36;;;;;;;1.70;1.60;;;;;;;;;;5137995;27;20258;-68
2022/08/11 15:53:07;;;;;;;1.85;1.10;;;;;;;;;;5138017;27;20388;-69
2022/08/11 15:55:34;;;;;;;1.40;1.30;;;;;;;;;;5137764;27;20514;-69
2022/08/11 16:06:16;;;;;;;2.58;1.35;;;;;;;;;;5025513;28;20229;-70
2022/08/11 16:08:44;;;;;;;2.28;1.23;;;;;;;;;;5025564;28;20250;-69
2022/08/11 16:11:11;;;;;;;1.95;1.33;;;;;;;;;;5033752;28;20218;-69
2022/08/11 16:16:22;;;;;;;5.28;1.10;;;;;;;;;;5033472;28;20246;-69
2022/08/11 16:18:51;;;;;;;1.45;1.35;;;;;;;;;;5034591;28;20216;-69
2022/08/11 16:21:22;;;;;;;5.95;0.98;;;;;;;;;;5034477;28;20244;-68
2022/08/11 16:23:51;;;;;;;2.42;1.50;;;;;;;;;;5035274;28;20205;-69
2022/08/11 16:26:22;;;;;;;2.20;1.05;;;;;;;;;;5039591;28;20401;-69
2022/08/11 16:28:50;;;;;;;1.50;1.20;;;;;;;;;;5039913;28;20528;-68
2022/08/11 16:31:16;;;;;;;1.45;0.90;;;;;;;;;;5039850;28;20198;-68
2022/08/11 16:33:43;;;;;;;1.58;1.17;;;;;;;;;;5039476;28;20198;-68
2022/08/11 16:38:56;;;;;;;3.60;1.33;;;;;;;;;;5039574;28;20398;-69
2022/08/11 16:47:02;;;;;;;3.28;1.35;;;;;;;;;;5039074;28;20508;-69
2022/08/11 16:49:30;;;;;;;4.75;1.25;;;;;;;;;;5039347;28;20449;-69
2022/08/11 16:51:56;;;;;;;1.55;1.20;;;;;;;;;;5039304;28;20205;-68
2022/08/11 16:54:24;;;;;;;1.15;1.15;;;;;;;;;;5039360;28;20268;-68
2022/08/11 16:56:51;;;;;;;1.40;1.30;;;;;;;;;;5038427;28;20221;-68
2022/08/11 16:59:18;;;;;;;3.30;1.00;;;;;;;;;;5039337;28;20209;-68
2022/08/11 17:01:51;;;;;;;1.17;1.10;;;;;;;;;;5039211;28;20264;-68
2022/08/11 17:18:38;;;;;;;1.67;1.20;;;;;;;;;;5038998;28;20448;-69
2022/08/11 17:21:02;;;;;;;3.00;1.38;;;;;;;;;;5038906;28;20201;-69
2022/08/11 17:23:46;;;;;;;4.07;1.15;;;;;;;;;;5039340;28;20444;-69
2022/08/11 17:26:15;;;;;;;2.40;1.33;;;;;;;;;;5038968;28;20221;-63
2022/08/11 17:28:42;;;;;;;1.30;1.20;;;;;;;;;;5039205;28;20197;-63
2022/08/11 17:36:40;;;;;;;3.50;1.45;;;;;;;;;;5032899;28;20220;-63
2022/08/11 17:39:07;;;;;;;2.88;1.13;;;;;;;;;;5027965;28;20202;-63
2022/08/11 17:49:47;;;;;;;3.90;1.40;;;;;;;;;;5038835;28;20254;-63
2022/08/11 18:00:27;;;;;;;1.50;1.40;;;;;;;;;;5038724;28;20227;-62
2022/08/11 18:05:42;;;;;;;2.15;2.03;;;;;;;;;;5038608;28;20250;-62
